Time,TemperatureF,DewpointF,PressureIn,WindDirection,WindDirectionDegrees,WindSpeedMPH,WindSpeedGustMPH,Humidity,HourlyPrecipIn,Conditions,Clouds,dailyrainin,SoftwareType,DateUTC
2013-08-24 00:21:00,65.0,50.0,-100.00,ESE,122,7.0,12.0,57,-99.99,,,-99.99,,2013-08-24 00:21:00,
2013-08-24 00:43:00,65.0,49.0,-100.00,SE,132,5.0,7.0,56,-99.99,,,-99.99,,2013-08-24 00:43:00,
2013-08-24 01:11:00,65.0,52.0,-100.00,South,171,7.0,11.0,62,-99.99,,,-99.99,,2013-08-24 01:11:00,
2013-08-24 01:22:00,64.0,51.0,-100.00,SSE,152,8.0,15.0,61,-99.99,,,-99.99,,2013-08-24 01:22:00,
2013-08-24 01:42:00,64.0,50.0,-100.00,South,171,11.0,21.0,61,-99.99,,,-99.99,,2013-08-24 01:42:00,
2013-08-24 02:11:00,64.0,49.0,-100.00,ESE,104,11.0,13.0,59,-99.99,,,-99.99,,2013-08-24 02:11:00,
2013-08-24 02:22:00,64.0,49.0,-100.00,ESE,112,11.0,12.0,59,-99.99,,,-99.99,,2013-08-24 02:22:00,
2013-08-24 02:42:00,63.0,49.0,-100.00,SSE,167,5.0,13.0,59,-99.99,,,-99.99,,2013-08-24 02:42:00,
2013-08-24 03:22:00,63.0,50.0,-100.00,SE,131,3.0,7.0,62,-99.99,,,-99.99,,2013-08-24 03:22:00,
2013-08-24 03:44:00,63.0,50.0,-100.00,SSE,162,5.0,7.0,63,-99.99,,,-99.99,,2013-08-24 03:44:00,
2013-08-24 04:14:00,62.0,52.0,-100.00,ESE,117,4.0,6.0,70,-99.99,,,-99.99,,2013-08-24 04:14:00,
2013-08-24 04:44:00,61.0,52.0,-100.00,ESE,122,7.0,8.0,71,-99.99,,,-99.99,,2013-08-24 04:44:00,
2013-08-24 05:12:00,61.0,52.0,-100.00,East,101,7.0,7.0,70,-99.99,,,-99.99,,2013-08-24 05:12:00,
2013-08-24 05:43:00,60.0,52.0,-100.00,ESE,105,6.0,8.0,75,-99.99,,,-99.99,,2013-08-24 05:43:00,
2013-08-24 06:12:00,59.0,53.0,-100.00,SSW,193,3.0,3.0,81,-99.99,,,-99.99,,2013-08-24 06:12:00,
2013-08-24 06:21:00,60.0,53.0,-100.00,SW,219,0.0,4.0,79,-99.99,,,-99.99,,2013-08-24 06:21:00,
2013-08-24 06:42:00,59.0,53.0,-100.00,West,279,2.0,3.0,80,-99.99,,,-99.99,,2013-08-24 06:42:00,
2013-08-24 07:11:00,58.0,53.0,-100.00,SW,221,4.0,4.0,85,-99.99,,,-99.99,,2013-08-24 07:11:00,
2013-08-24 07:22:00,58.0,53.0,-100.00,SSE,160,3.0,4.0,84,-99.99,,,-99.99,,2013-08-24 07:22:00,
2013-08-24 07:42:00,58.0,53.0,-100.00,South,178,2.0,3.0,83,-99.99,,,-99.99,,2013-08-24 07:42:00,
2013-08-24 08:12:00,57.0,52.0,-100.00,WNW,282,2.0,3.0,83,-99.99,,,-99.99,,2013-08-24 08:12:00,
2013-08-24 08:22:00,55.0,51.0,-100.00,South,189,0.0,2.0,85,-99.99,,,-99.99,,2013-08-24 08:22:00,
2013-08-24 08:42:00,55.0,51.0,-100.00,NW,326,1.0,2.0,88,-99.99,,,-99.99,,2013-08-24 08:42:00,
2013-08-24 09:11:00,53.0,51.0,-100.00,SW,224,0.0,4.0,90,-99.99,,,-99.99,,2013-08-24 09:11:00,
2013-08-24 09:22:00,53.0,50.0,-100.00,SSW,211,1.0,3.0,89,-99.99,,,-99.99,,2013-08-24 09:22:00,
2013-08-24 10:13:00,53.0,49.0,-100.00,South,191,3.0,4.0,87,-99.99,,,-99.99,,2013-08-24 10:13:00,
2013-08-24 10:42:00,51.0,49.0,-100.00,SSW,212,2.0,3.0,91,-99.99,,,-99.99,,2013-08-24 10:42:00,
2013-08-24 11:11:00,50.0,48.0,-100.00,SSE,168,1.0,3.0,91,-99.99,,,-99.99,,2013-08-24 11:11:00,
2013-08-24 11:42:00,51.0,48.0,-100.00,ESE,121,1.0,2.0,91,-99.99,,,-99.99,,2013-08-24 11:42:00,
2013-08-24 12:11:00,49.0,47.0,-100.00,South,169,0.0,2.0,93,-99.99,,,-99.99,,2013-08-24 12:11:00,
2013-08-24 12:21:00,50.0,48.0,-100.00,SE,138,2.0,4.0,93,-99.99,,,-99.99,,2013-08-24 12:21:00,
2013-08-24 12:41:00,49.0,47.0,-100.00,SE,137,1.0,3.0,92,-99.99,,,-99.99,,2013-08-24 12:41:00,
2013-08-24 12:52:00,50.0,47.0,-100.00,SSW,199,0.0,2.0,91,-99.99,,,-99.99,,2013-08-24 12:52:00,
2013-08-24 13:11:00,48.0,47.0,-100.00,SW,234,3.0,4.0,93,-99.99,,,-99.99,,2013-08-24 13:11:00,
2013-08-24 13:22:00,49.0,47.0,-100.00,SSW,209,2.0,3.0,92,-99.99,,,-99.99,,2013-08-24 13:22:00,
2013-08-24 13:42:00,50.0,47.0,-100.00,SW,234,2.0,3.0,91,-99.99,,,-99.99,,2013-08-24 13:42:00,
2013-08-24 14:42:00,56.0,48.0,-100.00,South,184,3.0,4.0,76,-99.99,,,-99.99,,2013-08-24 14:42:00,
2013-08-24 15:45:00,58.0,49.0,-100.00,SSW,195,2.0,3.0,71,-99.99,,,-99.99,,2013-08-24 15:45:00,
2013-08-24 16:13:00,61.0,49.0,-100.00,ESE,107,9.0,11.0,64,-99.99,,,-99.99,,2013-08-24 16:13:00,
2013-08-24 16:23:00,62.0,47.0,-100.00,East,93,7.0,9.0,58,-99.99,,,-99.99,,2013-08-24 16:23:00,
2013-08-24 16:42:00,64.0,50.0,-100.00,ESE,103,8.0,10.0,60,-99.99,,,-99.99,,2013-08-24 16:42:00,
2013-08-24 17:23:00,68.0,50.0,-100.00,East,99,10.0,14.0,52,-99.99,,,-99.99,,2013-08-24 17:23:00,
2013-08-24 17:42:00,69.0,48.0,-100.00,East,95,7.0,10.0,47,-99.99,,,-99.99,,2013-08-24 17:42:00,
2013-08-24 18:13:00,72.0,48.0,-100.00,East,100,14.0,15.0,42,-99.99,,,-99.99,,2013-08-24 18:13:00,
2013-08-24 18:22:00,73.0,48.0,-100.00,East,100,7.0,18.0,41,-99.99,,,-99.99,,2013-08-24 18:22:00,
2013-08-24 18:42:00,76.0,44.0,-100.00,SSE,151,9.0,12.0,32,-99.99,,,-99.99,,2013-08-24 18:42:00,
2013-08-24 19:12:00,78.0,44.0,-100.00,South,171,9.0,19.0,29,-99.99,,,-99.99,,2013-08-24 19:12:00,
2013-08-24 19:21:00,77.0,43.0,-100.00,SE,137,14.0,16.0,30,-99.99,,,-99.99,,2013-08-24 19:21:00,
2013-08-24 19:42:00,75.0,44.0,-100.00,SE,133,16.0,19.0,32,-99.99,,,-99.99,,2013-08-24 19:42:00,
2013-08-24 20:11:00,79.0,41.0,-100.00,South,174,10.0,19.0,25,-99.99,,,-99.99,,2013-08-24 20:11:00,
2013-08-24 20:42:00,77.0,42.0,-100.00,North,7,3.0,18.0,28,-99.99,,,-99.99,,2013-08-24 20:42:00,
2013-08-24 21:22:00,77.0,44.0,-100.00,NNW,345,3.0,9.0,31,-99.99,,,-99.99,,2013-08-24 21:22:00,
2013-08-24 21:43:00,76.0,47.0,-100.00,ESE,114,3.0,5.0,35,-99.99,,,-99.99,,2013-08-24 21:43:00,
2013-08-24 22:23:00,79.0,40.0,-100.00,South,183,7.0,15.0,25,-99.99,,,-99.99,,2013-08-24 22:23:00,
2013-08-24 22:42:00,78.0,38.0,-100.00,SSE,158,9.0,13.0,23,-99.99,,,-99.99,,2013-08-24 22:42:00,
2013-08-24 23:12:00,77.0,40.0,-100.00,SE,139,10.0,17.0,25,-99.99,,,-99.99,,2013-08-24 23:12:00,
2013-08-24 23:42:00,76.0,38.0,-100.00,SE,131,12.0,16.0,25,-99.99,,,-99.99,,2013-08-24 23:42:00,